createdAt,value
2023-05-22T00:01:56.705Z,68.11
2023-05-22T00:04:23.925Z,67.88
2023-05-22T00:06:50.846Z,67.89
2023-05-22T00:09:17.768Z,67.54
2023-05-22T00:11:44.882Z,67.47
2023-05-22T00:14:13.676Z,66.91
2023-05-22T00:16:41.349Z,66.91
2023-05-22T00:19:13.324Z,67.04
2023-05-22T00:21:40.676Z,66.77
2023-05-22T00:24:07.723Z,66.58
2023-05-22T00:26:34.833Z,66.44
2023-05-22T00:29:01.768Z,66.55
2023-05-22T00:31:28.895Z,66.55
2023-05-22T00:33:55.970Z,66.76
2023-05-22T00:36:23.712Z,67.25
2023-05-22T00:38:50.982Z,67.32
2023-05-22T00:41:18.001Z,67.43
2023-05-22T00:43:46.344Z,67.44
2023-05-22T00:46:14.565Z,67.53
2023-05-22T00:48:41.617Z,67.58
2023-05-22T00:51:09.125Z,67.67
2023-05-22T00:53:37.177Z,67.59
2023-05-22T00:56:07.144Z,67.73
2023-05-22T00:58:33.981Z,67.49
2023-05-22T01:01:01.892Z,67.59
2023-05-22T01:03:29.981Z,67.83
2023-05-22T01:05:57.084Z,67.58
2023-05-22T01:08:24.113Z,67.69
2023-05-22T01:11:02.189Z,67.64
2023-05-22T01:13:53.709Z,67.52
2023-05-22T01:16:32.637Z,67.28
2023-05-22T01:19:31.731Z,67.22
2023-05-22T01:22:26.634Z,67.08
2023-05-22T01:25:21.214Z,66.87
2023-05-22T01:27:48.000Z,66.63
2023-05-22T01:30:25.785Z,66.42
2023-05-22T01:32:57.754Z,66.42
2023-05-22T01:35:25.393Z,66.30
2023-05-22T01:37:52.348Z,66.43
2023-05-22T01:40:20.605Z,66.32
2023-05-22T01:42:47.800Z,66.38
2023-05-22T01:45:14.755Z,66.23
2023-05-22T01:47:41.624Z,66.33
2023-05-22T01:50:09.103Z,66.28
2023-05-22T01:52:39.396Z,66.75
2023-05-22T01:55:20.383Z,66.68
2023-05-22T01:57:56.097Z,67.01
2023-05-22T02:00:27.801Z,67.33
2023-05-22T02:03:04.055Z,67.21
2023-05-22T02:05:35.901Z,67.37
2023-05-22T02:08:04.476Z,67.08
2023-05-22T02:10:33.433Z,67.14
2023-05-22T02:13:01.794Z,67.35
2023-05-22T02:15:28.941Z,67.61
2023-05-22T02:17:56.894Z,67.84
2023-05-22T02:20:23.785Z,67.94
2023-05-22T02:22:50.625Z,67.96
2023-05-22T02:25:17.799Z,67.96
2023-05-22T02:27:47.478Z,68.17
2023-05-22T02:30:14.967Z,68.05
2023-05-22T02:32:43.595Z,68.22
2023-05-22T02:35:10.798Z,68.11
2023-05-22T02:37:37.836Z,68.42
2023-05-22T02:40:08.387Z,68.73
2023-05-22T02:42:35.327Z,68.72
2023-05-22T02:45:02.837Z,69.02
2023-05-22T02:47:30.051Z,69.06
2023-05-22T02:49:58.381Z,69.22
2023-05-22T02:52:25.470Z,69.43
2023-05-22T02:54:52.282Z,69.31
2023-05-22T02:57:20.365Z,69.66
2023-05-22T02:59:47.230Z,69.90
2023-05-22T03:02:15.457Z,69.87
2023-05-22T03:04:42.334Z,70.08
2023-05-22T03:07:09.222Z,70.11
2023-05-22T03:09:36.389Z,69.92
2023-05-22T03:12:03.495Z,69.72
2023-05-22T03:14:30.546Z,69.96
2023-05-22T03:16:59.045Z,69.87
2023-05-22T03:19:26.727Z,70.07
2023-05-22T03:21:53.781Z,69.84
2023-05-22T03:24:22.105Z,70.22
2023-05-22T03:26:48.951Z,69.90
2023-05-22T03:29:21.821Z,69.79
2023-05-22T03:31:48.865Z,69.93
2023-05-22T03:34:16.700Z,69.77
2023-05-22T03:36:46.193Z,69.87
2023-05-22T03:39:15.547Z,69.44
2023-05-22T03:41:50.908Z,69.77
2023-05-22T03:44:18.457Z,70.16
2023-05-22T03:46:46.311Z,69.96
2023-05-22T03:49:13.105Z,69.95
2023-05-22T03:51:39.898Z,70.36
2023-05-22T03:54:06.913Z,70.16
2023-05-22T03:56:33.721Z,70.67
2023-05-22T03:59:00.859Z,70.64
2023-05-22T04:01:27.715Z,70.61
2023-05-22T04:03:54.525Z,70.64
2023-05-22T04:06:21.858Z,70.45
2023-05-22T04:08:49.255Z,70.21
2023-05-22T04:11:16.278Z,70.49
2023-05-22T04:13:43.263Z,70.48
2023-05-22T04:16:10.477Z,70.13
2023-05-22T04:18:37.850Z,70.16
2023-05-22T04:21:08.173Z,69.91
2023-05-22T04:23:35.458Z,70.10
2023-05-22T04:26:04.553Z,69.98
2023-05-22T04:28:31.553Z,69.62
2023-05-22T04:30:58.449Z,69.75
2023-05-22T04:33:25.279Z,69.66
2023-05-22T04:35:52.272Z,69.47
2023-05-22T04:38:19.509Z,69.20
2023-05-22T04:40:46.431Z,69.15
2023-05-22T04:43:14.708Z,69.18
2023-05-22T04:45:42.378Z,69.06
2023-05-22T04:48:09.377Z,69.08
2023-05-22T04:50:38.954Z,68.96
2023-05-22T04:53:06.444Z,68.82
2023-05-22T04:55:34.161Z,68.83
2023-05-22T04:58:01.664Z,69.22
2023-05-22T05:00:29.572Z,69.15
2023-05-22T05:02:58.135Z,69.08
2023-05-22T05:05:25.179Z,69.62
2023-05-22T05:07:53.420Z,69.52
2023-05-22T05:10:20.534Z,69.39
2023-05-22T05:12:47.419Z,69.46
2023-05-22T05:15:14.459Z,69.35
2023-05-22T05:17:41.693Z,69.14
2023-05-22T05:20:09.322Z,69.29
2023-05-22T05:22:37.451Z,69.09
2023-05-22T05:25:06.263Z,69.38
2023-05-22T05:27:33.438Z,68.99
2023-05-22T05:30:01.694Z,69.01
2023-05-22T05:32:47.285Z,69.08
2023-05-22T05:35:36.412Z,68.65
2023-05-22T05:38:08.103Z,68.71
2023-05-22T05:40:36.282Z,69.08
2023-05-22T05:43:04.319Z,68.44
2023-05-22T05:45:31.294Z,68.39
2023-05-22T05:47:58.798Z,67.86
2023-05-22T05:50:25.744Z,67.44
2023-05-22T05:52:54.411Z,67.69
2023-05-22T05:55:22.128Z,67.34
2023-05-22T05:57:49.239Z,67.13
2023-05-22T06:00:23.472Z,67.07
2023-05-22T06:02:52.261Z,67.56
2023-05-22T06:05:46.522Z,66.84
2023-05-22T06:08:21.945Z,66.76
2023-05-22T06:10:49.085Z,66.63
2023-05-22T06:13:30.891Z,66.56
2023-05-22T06:16:00.739Z,66.57
2023-05-22T06:18:29.161Z,66.45
2023-05-22T06:20:59.058Z,66.73
2023-05-22T06:23:25.983Z,66.93
2023-05-22T06:25:55.652Z,67.05
2023-05-22T06:28:23.486Z,67.36
2023-05-22T06:30:50.504Z,67.97
2023-05-22T06:33:20.248Z,68.12
2023-05-22T06:35:47.875Z,68.23
2023-05-22T06:38:16.778Z,68.90
2023-05-22T06:40:44.255Z,69.15
2023-05-22T06:43:21.030Z,69.50
2023-05-22T06:45:55.652Z,69.15
2023-05-22T06:48:22.581Z,69.13
2023-05-22T06:51:18.716Z,69.41
2023-05-22T06:53:50.479Z,69.16
2023-05-22T06:56:22.868Z,69.46
2023-05-22T06:58:56.730Z,69.36
2023-05-22T07:01:31.521Z,69.59
2023-05-22T07:04:05.502Z,69.08
2023-05-22T07:06:39.180Z,69.21
2023-05-22T07:09:07.018Z,69.21
2023-05-22T07:11:35.973Z,69.06
2023-05-22T07:14:03.121Z,68.68
2023-05-22T07:16:33.723Z,68.24
2023-05-22T07:19:01.525Z,67.77
2023-05-22T07:21:30.666Z,67.95
2023-05-22T07:23:58.232Z,67.82
2023-05-22T07:26:27.878Z,68.02
2023-05-22T07:29:03.779Z,68.17
2023-05-22T07:31:32.047Z,68.07
2023-05-22T07:33:58.886Z,68.21
2023-05-22T07:36:26.774Z,68.02
2023-05-22T07:38:53.713Z,68.21
2023-05-22T07:41:22.023Z,67.89
2023-05-22T07:43:50.401Z,67.50
2023-05-22T07:46:22.326Z,67.63
2023-05-22T07:49:07.296Z,67.46
2023-05-22T07:51:35.368Z,67.45
2023-05-22T07:54:02.714Z,67.63
2023-05-22T07:56:29.609Z,67.36
2023-05-22T07:58:57.061Z,67.31
2023-05-22T08:01:23.916Z,67.53
2023-05-22T08:03:51.169Z,67.41
2023-05-22T08:06:18.271Z,67.26
2023-05-22T08:08:45.136Z,67.18
2023-05-22T08:11:11.987Z,67.17
2023-05-22T08:13:38.863Z,67.34
2023-05-22T08:16:06.478Z,67.48
2023-05-22T08:18:33.308Z,67.59
2023-05-22T08:21:00.730Z,67.75
2023-05-22T08:23:27.704Z,67.60
2023-05-22T08:25:54.588Z,67.35
2023-05-22T08:28:21.567Z,67.21
2023-05-22T08:30:48.499Z,67.16
2023-05-22T08:33:15.373Z,66.99
2023-05-22T08:35:42.262Z,67.22
2023-05-22T08:38:09.105Z,67.71
2023-05-22T08:40:42.517Z,68.03
2023-05-22T08:43:11.434Z,68.68
2023-05-22T08:45:42.640Z,69.16
2023-05-22T08:48:13.948Z,69.48
2023-05-22T08:50:43.751Z,69.83
2023-05-22T08:53:13.487Z,70.38
2023-05-22T08:55:40.530Z,70.81
2023-05-22T08:58:08.781Z,71.50
2023-05-22T09:00:36.061Z,71.78
2023-05-22T09:03:03.741Z,72.07
2023-05-22T09:05:30.549Z,72.54
2023-05-22T09:08:02.677Z,73.31
2023-05-22T09:10:32.439Z,73.62
2023-05-22T09:13:04.428Z,73.73
2023-05-22T09:15:32.729Z,73.31
2023-05-22T09:18:00.885Z,73.70
2023-05-22T09:20:27.748Z,73.62
2023-05-22T09:22:54.702Z,73.82
2023-05-22T09:25:22.191Z,73.74
2023-05-22T09:27:49.412Z,73.94
2023-05-22T09:30:20.212Z,73.48
2023-05-22T09:32:49.196Z,73.56
2023-05-22T09:35:16.644Z,73.55
2023-05-22T09:37:43.557Z,73.47
2023-05-22T09:40:16.534Z,74.22
2023-05-22T09:42:45.819Z,74.01
2023-05-22T09:45:13.120Z,73.80
2023-05-22T09:47:40.807Z,73.86
2023-05-22T09:50:10.435Z,73.54
2023-05-22T09:52:38.189Z,73.32
2023-05-22T09:55:07.078Z,72.36
2023-05-22T09:57:44.883Z,72.46
2023-05-22T10:00:14.347Z,72.34
2023-05-22T10:02:46.987Z,71.68
2023-05-22T10:05:21.480Z,70.84
2023-05-22T10:07:55.305Z,69.65
2023-05-22T10:10:24.796Z,68.66
2023-05-22T10:12:54.075Z,67.53
2023-05-22T10:15:21.452Z,66.66
2023-05-22T10:17:49.038Z,66.54
2023-05-22T10:20:17.020Z,65.42
2023-05-22T10:22:44.525Z,65.88
2023-05-22T10:25:11.734Z,63.57
2023-05-22T10:27:39.951Z,62.38
2023-05-22T10:30:26.993Z,62.17
2023-05-22T10:33:18.275Z,61.85
2023-05-22T10:36:03.768Z,61.40
2023-05-22T10:39:01.226Z,61.75
2023-05-22T10:41:28.604Z,61.62
2023-05-22T10:43:57.030Z,61.66
2023-05-22T10:46:24.217Z,61.95
2023-05-22T10:48:54.397Z,61.89
2023-05-22T10:51:22.843Z,60.48
2023-05-22T10:54:02.637Z,59.15
2023-05-22T10:56:37.241Z,59.02
2023-05-22T10:59:06.012Z,58.37
2023-05-22T11:01:36.287Z,57.20
2023-05-22T11:04:12.276Z,55.93
2023-05-22T11:07:02.680Z,56.22
2023-05-22T11:09:34.658Z,56.05
2023-05-22T11:12:21.411Z,55.33
2023-05-22T11:14:55.602Z,55.39
2023-05-22T11:17:31.058Z,55.46
2023-05-22T11:20:05.798Z,55.56
2023-05-22T11:22:42.777Z,55.68
2023-05-22T11:25:11.672Z,55.97
2023-05-22T11:27:40.694Z,56.14
2023-05-22T11:30:08.912Z,55.69
2023-05-22T11:32:37.477Z,54.78
2023-05-22T11:35:08.622Z,54.25
2023-05-22T11:37:39.949Z,53.35
2023-05-22T11:40:07.679Z,53.01
2023-05-22T11:42:35.847Z,52.43
2023-05-22T11:45:04.194Z,51.99
2023-05-22T11:47:31.413Z,51.10
2023-05-22T11:49:59.801Z,51.62
2023-05-22T11:52:31.735Z,50.62
2023-05-22T11:54:58.680Z,51.44
2023-05-22T11:57:25.722Z,51.17
2023-05-22T11:59:53.547Z,49.82
2023-05-22T12:02:22.329Z,50.33
2023-05-22T12:04:54.455Z,50.34
2023-05-22T12:07:22.493Z,50.71
2023-05-22T12:09:49.450Z,50.42
2023-05-22T12:12:16.585Z,50.81
2023-05-22T12:14:47.262Z,51.01
2023-05-22T12:17:16.037Z,51.20
2023-05-22T12:19:47.358Z,51.49
2023-05-22T12:22:14.622Z,51.64
2023-05-22T12:24:42.752Z,51.08
2023-05-22T12:27:10.407Z,51.15
2023-05-22T12:29:38.583Z,51.13
2023-05-22T12:32:08.847Z,51.08
2023-05-22T12:34:36.589Z,50.95
2023-05-22T12:37:03.360Z,51.36
2023-05-22T12:39:30.617Z,51.69
2023-05-22T12:41:57.499Z,51.97
2023-05-22T12:44:24.377Z,51.95
2023-05-22T12:46:52.416Z,51.61
2023-05-22T12:49:19.238Z,51.38
2023-05-22T12:51:46.057Z,51.74
2023-05-22T12:54:14.858Z,51.17
2023-05-22T12:56:41.693Z,51.26
2023-05-22T12:59:08.780Z,51.01
2023-05-22T13:01:35.689Z,51.47
2023-05-22T13:04:02.586Z,50.91
2023-05-22T13:06:30.526Z,52.01
2023-05-22T13:08:57.689Z,51.45
2023-05-22T13:11:26.557Z,50.66
2023-05-22T13:13:53.372Z,50.70
2023-05-22T13:16:20.836Z,49.92
2023-05-22T13:18:48.049Z,49.63
2023-05-22T13:21:17.864Z,49.24
2023-05-22T13:23:44.721Z,48.89
2023-05-22T13:26:11.648Z,48.51
2023-05-22T13:28:38.438Z,48.22
2023-05-22T13:31:05.558Z,47.65
2023-05-22T13:33:32.379Z,47.21
2023-05-22T13:35:59.252Z,47.05
2023-05-22T13:38:26.087Z,47.76
2023-05-22T13:40:52.835Z,46.90
2023-05-22T13:43:19.737Z,46.91
2023-05-22T13:45:46.559Z,47.10
2023-05-22T13:48:13.549Z,46.82
2023-05-22T13:50:40.545Z,46.37
2023-05-22T13:53:07.554Z,46.88
2023-05-22T13:55:34.358Z,46.31
2023-05-22T13:58:01.128Z,46.83
2023-05-22T14:00:27.977Z,46.71
2023-05-22T14:02:54.922Z,46.63
2023-05-22T14:05:21.980Z,47.15
2023-05-22T14:07:48.797Z,47.42
2023-05-22T14:10:15.792Z,47.58
2023-05-22T14:12:42.713Z,48.59
2023-05-22T14:15:10.070Z,49.37
2023-05-22T14:17:37.403Z,50.35
2023-05-22T14:20:04.660Z,53.05
2023-05-22T14:22:36.060Z,54.70
2023-05-22T14:25:08.831Z,55.64
2023-05-22T14:27:35.814Z,56.00
2023-05-22T14:30:02.792Z,56.32
2023-05-22T14:32:29.684Z,56.68
2023-05-22T14:34:56.559Z,57.32
2023-05-22T14:37:23.343Z,56.88
2023-05-22T14:39:50.324Z,57.53
2023-05-22T14:42:17.188Z,57.45
2023-05-22T14:44:44.003Z,58.26
2023-05-22T14:47:10.980Z,57.80
2023-05-22T14:49:37.781Z,57.29
2023-05-22T14:52:04.662Z,57.15
2023-05-22T14:54:31.492Z,57.14
2023-05-22T14:56:59.009Z,58.41
2023-05-22T14:59:26.021Z,58.48
2023-05-22T15:01:52.986Z,58.41
2023-05-22T15:04:19.944Z,57.67
2023-05-22T15:06:46.822Z,58.27
2023-05-22T15:09:13.740Z,57.78
2023-05-22T15:11:45.533Z,58.15
2023-05-22T15:14:12.248Z,57.64
2023-05-22T15:16:39.069Z,58.61
2023-05-22T15:19:05.941Z,58.24
2023-05-22T15:21:33.008Z,58.99
2023-05-22T15:23:59.738Z,58.84
2023-05-22T15:26:26.665Z,58.78
2023-05-22T15:28:53.564Z,59.01
2023-05-22T15:31:20.393Z,59.09
2023-05-22T15:33:47.232Z,59.42
2023-05-22T15:36:14.083Z,59.89
2023-05-22T15:38:40.895Z,59.04
2023-05-22T15:41:07.709Z,58.61
2023-05-22T15:43:34.509Z,57.74
2023-05-22T15:46:01.412Z,56.88
2023-05-22T15:48:28.774Z,57.46
2023-05-22T15:50:55.635Z,56.51
2023-05-22T15:53:22.865Z,56.59
2023-05-22T15:55:50.372Z,57.02
2023-05-22T15:58:17.480Z,57.69
2023-05-22T16:00:44.396Z,58.10
2023-05-22T16:03:11.386Z,58.48
2023-05-22T16:05:41.681Z,57.97
2023-05-22T16:08:11.802Z,57.54
2023-05-22T16:10:41.627Z,57.81
2023-05-22T16:13:10.713Z,57.71
2023-05-22T16:15:39.966Z,58.00
2023-05-22T16:18:07.616Z,57.91
2023-05-22T16:20:35.781Z,57.01
2023-05-22T16:23:02.821Z,56.99
2023-05-22T16:25:29.544Z,57.51
2023-05-22T16:27:56.333Z,58.37
2023-05-22T16:30:23.188Z,58.00
2023-05-22T16:32:49.962Z,58.49
2023-05-22T16:35:17.101Z,58.84
2023-05-22T16:37:43.928Z,58.75
2023-05-22T16:40:11.313Z,58.92
2023-05-22T16:42:38.391Z,59.35
2023-05-22T16:45:06.247Z,59.71
2023-05-22T16:47:33.119Z,59.64
2023-05-22T16:50:00.488Z,59.17
2023-05-22T16:52:27.393Z,59.85
2023-05-22T16:54:54.269Z,60.30
2023-05-22T16:57:21.138Z,60.01
2023-05-22T16:59:48.203Z,60.67
2023-05-22T17:02:15.174Z,61.01
2023-05-22T17:04:42.043Z,61.52
2023-05-22T17:07:08.923Z,62.70
2023-05-22T17:09:35.816Z,61.88
2023-05-22T17:12:02.637Z,62.81
2023-05-22T17:14:29.467Z,62.38
2023-05-22T17:16:56.342Z,62.94
2023-05-22T17:19:23.325Z,63.45
2023-05-22T17:21:50.119Z,63.43
2023-05-22T17:24:16.912Z,63.76
2023-05-22T17:26:44.517Z,63.91
2023-05-22T17:29:11.456Z,64.10
2023-05-22T17:31:39.439Z,64.06
2023-05-22T17:34:06.618Z,63.80
2023-05-22T17:36:33.581Z,63.93
2023-05-22T17:39:00.793Z,63.77
2023-05-22T17:41:27.626Z,63.65
2023-05-22T17:43:55.915Z,63.23
2023-05-22T17:46:23.180Z,63.29
2023-05-22T17:48:50.065Z,63.43
2023-05-22T17:51:16.926Z,63.52
2023-05-22T17:53:43.837Z,62.79
2023-05-22T17:56:10.620Z,63.08
2023-05-22T17:58:37.445Z,62.68
2023-05-22T18:01:04.427Z,62.04
2023-05-22T18:03:31.485Z,62.11
2023-05-22T18:05:58.728Z,61.89
2023-05-22T18:08:25.667Z,61.77
2023-05-22T18:10:52.542Z,62.94
2023-05-22T18:13:19.670Z,62.02
2023-05-22T18:15:48.300Z,61.95
2023-05-22T18:18:16.400Z,62.17
2023-05-22T18:20:44.218Z,61.55
2023-05-22T18:23:11.017Z,61.39
2023-05-22T18:25:37.863Z,60.65
2023-05-22T18:28:04.715Z,60.71
2023-05-22T18:30:32.394Z,61.66
2023-05-22T18:32:59.307Z,61.53
2023-05-22T18:35:26.106Z,60.67
2023-05-22T18:37:52.946Z,61.38
2023-05-22T18:40:19.876Z,60.26
2023-05-22T18:42:46.715Z,60.19
2023-05-22T18:45:13.628Z,60.50
2023-05-22T18:47:40.637Z,60.57
2023-05-22T18:50:08.053Z,59.99
2023-05-22T18:52:34.972Z,59.81
2023-05-22T18:55:01.757Z,59.83
2023-05-22T18:57:28.583Z,59.50
2023-05-22T18:59:55.512Z,59.48
2023-05-22T19:02:22.477Z,60.21
2023-05-22T19:04:50.778Z,60.61
2023-05-22T19:07:17.822Z,59.18
2023-05-22T19:09:44.752Z,59.11
2023-05-22T19:12:11.600Z,58.88
2023-05-22T19:14:38.454Z,58.81
2023-05-22T19:17:05.542Z,58.90
2023-05-22T19:19:32.592Z,59.26
2023-05-22T19:21:59.520Z,59.45
2023-05-22T19:24:28.060Z,58.24
2023-05-22T19:26:54.823Z,57.90
2023-05-22T19:29:21.694Z,57.95
2023-05-22T19:31:48.553Z,57.73
2023-05-22T19:34:15.390Z,57.99
2023-05-22T19:36:42.744Z,57.71
2023-05-22T19:39:09.699Z,57.40
2023-05-22T19:41:36.464Z,57.85
2023-05-22T19:44:03.183Z,57.74
2023-05-22T19:46:30.077Z,57.84
2023-05-22T19:48:57.196Z,57.92
2023-05-22T19:51:23.987Z,57.96
2023-05-22T19:53:50.875Z,57.76
2023-05-22T19:56:17.628Z,58.48
2023-05-22T19:58:44.433Z,59.23
2023-05-22T20:01:11.397Z,59.01
2023-05-22T20:03:40.047Z,58.82
2023-05-22T20:06:07.404Z,58.78
2023-05-22T20:08:34.331Z,58.49
2023-05-22T20:11:01.206Z,58.70
2023-05-22T20:13:28.034Z,58.80
2023-05-22T20:15:55.095Z,58.77
2023-05-22T20:18:22.175Z,59.00
2023-05-22T20:20:49.024Z,59.35
2023-05-22T20:23:16.069Z,59.65
2023-05-22T20:25:43.127Z,59.54
2023-05-22T20:28:10.096Z,59.54
2023-05-22T20:30:36.902Z,59.57
2023-05-22T20:33:04.052Z,59.87
2023-05-22T20:35:31.023Z,60.01
2023-05-22T20:38:03.335Z,59.96
2023-05-22T20:40:32.452Z,60.31
2023-05-22T20:43:02.472Z,60.01
2023-05-22T20:45:32.737Z,60.50
2023-05-22T20:47:59.722Z,60.44
2023-05-22T20:50:27.227Z,60.26
2023-05-22T20:52:54.312Z,60.13
2023-05-22T20:55:21.183Z,59.72
2023-05-22T20:57:48.048Z,59.83
2023-05-22T21:00:14.885Z,59.67
2023-05-22T21:02:41.855Z,59.51
2023-05-22T21:05:09.167Z,59.73
2023-05-22T21:07:36.067Z,59.81
2023-05-22T21:10:03.463Z,59.80
2023-05-22T21:12:30.449Z,59.71
2023-05-22T21:14:57.363Z,59.70
2023-05-22T21:17:25.059Z,60.10
2023-05-22T21:19:52.151Z,59.81
2023-05-22T21:22:18.903Z,59.59
2023-05-22T21:24:45.721Z,59.94
2023-05-22T21:27:12.586Z,59.79
2023-05-22T21:29:39.335Z,59.73
2023-05-22T21:32:06.610Z,59.83
2023-05-22T21:34:33.462Z,59.90
2023-05-22T21:37:00.242Z,59.99
2023-05-22T21:39:27.036Z,60.23
2023-05-22T21:41:53.853Z,60.58
2023-05-22T21:44:20.666Z,60.91
2023-05-22T21:46:50.646Z,60.81
2023-05-22T21:49:17.594Z,61.04
2023-05-22T21:51:44.504Z,61.44
2023-05-22T21:54:11.304Z,61.97
2023-05-22T21:56:38.670Z,62.21
2023-05-22T21:59:05.851Z,62.67
2023-05-22T22:01:32.866Z,62.99
2023-05-22T22:03:59.777Z,63.12
2023-05-22T22:06:26.630Z,63.79
2023-05-22T22:08:53.527Z,63.98
2023-05-22T22:11:20.447Z,64.12
2023-05-22T22:13:47.281Z,64.36
2023-05-22T22:16:14.771Z,64.32
2023-05-22T22:18:41.695Z,64.29
2023-05-22T22:21:08.519Z,64.60
2023-05-22T22:23:35.531Z,64.74
2023-05-22T22:26:02.360Z,65.07
2023-05-22T22:28:29.223Z,65.49
2023-05-22T22:30:56.178Z,65.53
2023-05-22T22:33:23.213Z,65.60
2023-05-22T22:35:50.379Z,65.76
2023-05-22T22:38:17.250Z,66.12
2023-05-22T22:40:44.239Z,66.34
2023-05-22T22:43:10.996Z,66.36
2023-05-22T22:45:39.897Z,66.32
2023-05-22T22:48:07.184Z,66.33
2023-05-22T22:50:34.057Z,66.45
2023-05-22T22:53:00.873Z,66.85
2023-05-22T22:55:27.789Z,67.33
2023-05-22T22:57:54.990Z,67.47
2023-05-22T23:00:21.985Z,67.88
2023-05-22T23:02:49.067Z,68.38
2023-05-22T23:05:20.011Z,68.25
2023-05-22T23:07:47.822Z,68.36
2023-05-22T23:10:15.177Z,68.17
2023-05-22T23:12:42.112Z,68.57
2023-05-22T23:15:09.660Z,68.50
2023-05-22T23:17:36.784Z,68.66
2023-05-22T23:20:04.538Z,68.40
2023-05-22T23:22:31.348Z,68.74
2023-05-22T23:24:58.156Z,68.37
2023-05-22T23:27:24.977Z,68.56
2023-05-22T23:29:52.137Z,68.87
2023-05-22T23:32:18.916Z,68.76
2023-05-22T23:34:45.726Z,68.49
2023-05-22T23:37:12.608Z,68.90
2023-05-22T23:39:39.387Z,69.19
2023-05-22T23:42:09.824Z,69.32
2023-05-22T23:44:37.291Z,69.31
2023-05-22T23:47:04.350Z,69.33
2023-05-22T23:49:31.262Z,69.25
2023-05-22T23:51:58.101Z,69.34
2023-05-22T23:54:25.132Z,69.74
2023-05-22T23:56:51.937Z,69.89
2023-05-22T23:59:18.772Z,70.48
